Airfield :
LOGIN :

Register | Disclaimer

   EN    FR    IT 

 










Legend :    VFR   Marginal VFR   IFR   Intensive IFR   Very Intensive IFR
Visi :
Ceiling :
>= 8 km
>= 3000ft
5 to 8 km
1000 to 3000 ft
1500m to 5 km
500 to 1000 ft
800 to 1500m
200 to 500 ft
< 800m
< 200 ft
Symbols :   Thunderstorms  Fog  Heavy snow  Heavy precipitations  Wind > 20 kt
SIGMETs :     Misc.  Thunderstorms  Icing  Turbulence  Mountain Waves  Volcanic Ashes







- Airport Elevation : 1 ft
- Download approach charts


EGCK - Caernarfon

CURRENT METAR :
  • 152250Z AUTO 19023KT 6000 -RA OVC003/// 10/09 Q1017

EXPIRED METARs :
  • 152220Z AUTO 18023KT 6000 -RA OVC003/// 10/09 Q1017 RERA
  • 152150Z AUTO 18021G31KT 8000 -RA OVC006/// 10/08 Q1017
  • 152120Z AUTO 18023KT 9999 -RA FEW005/// OVC012/// 10/08 Q1017
  • 152050Z AUTO 18021KT 9999 OVC014/// 11/06 Q1017
  • 152020Z AUTO 19019G31KT 9999 OVC020/// 12/06 Q1018

TAF AMD TAF EGCK
Valid from the 15 at 22:00 until the 16 at 06:00 UTC


152227Z 1522/1606 18017KT 9999 SCT025
TEMPO 1522/1606 19020G30KT 8000 BKN006
PROB30
TEMPO 1522/1524 4000 -DZ BKN002
No reported NOTAMs for that airfield.
1 SIGMET reported for the London FIR (EGTT) :
 
Severe mountain waves
EGTT SIGMET 02 VALID 152300/160300 EGRR
EGTT LONDON FIR SEV MTW FCST WI N5328 E00011 - N5228 W00406 - N5500 W00435 - N5500 E00008 - N5328 E00011 FL030/200 STNR WKN=



MET'MAP, your aeronautical weather chart ! - Copyright ORBIFLY December 2007 - Disclaimer

ORBIFLY MET'MAP TEAM :

Programming & Development : Alexandra Zaïnal
Concept & Development : Baudouin d'Aumeries
Co-Development & Prog : Marc-Olivier Méhu
Technical & hardware support : Manuel Goepfert

Contact : metmap@orbifly.com




SOURCES & CREDITS :

   NOAA